Sinnamahoning, Pennsylvania
Current Conditions -  °F | °C
As of 3:54 PM on Friday 19 Dec 2014 (Local Time) from KFIG Reporting Station
Broken Clouds Broken Clouds  
Wind Chill: 20°   Ceiling: 2500
Heat Index: 30°   Visibility: 10mi
Dew Point: 19°   Wind: 13mph
Humidity: 64%   Direction: 310°NW
Pressure: 30.14"   Gusts: NA
Location:  41.32°N, 78.1°W
Report Text: KFIG 192054Z AUTO 31011KT 10SM BKN025 M01/M07 A3014 RMK AO2 SLP224 T10111072 51009
Loading
Personal Weather Stations






























Interactive Weather Map New forecast layout! Learn more

10-Day Weather Forecast

Advertisements
Track Severe Weather on mobile